sensor_id;sensor_type;location;lat;lon;timestamp;pressure;altitude;pressure_sealevel;temperature;humidity
10097;BME280;5087;42.662;23.466;2022-10-16T00:00:44;96013.63;;;6.08;100.00
10097;BME280;5087;42.662;23.466;2022-10-16T00:03:11;96052.69;;;6.31;100.00
10097;BME280;5087;42.662;23.466;2022-10-16T00:05:40;96055.94;;;6.23;100.00
10097;BME280;5087;42.662;23.466;2022-10-16T00:08:08;96060.81;;;6.11;100.00
10097;BME280;5087;42.662;23.466;2022-10-16T00:10:36;96025.50;;;5.81;100.00
10097;BME280;5087;42.662;23.466;2022-10-16T00:13:04;96024.16;;;5.84;100.00
10097;BME280;5087;42.662;23.466;2022-10-16T00:15:34;96066.47;;;6.09;100.00
10097;BME280;5087;42.662;23.466;2022-10-16T00:18:03;96031.97;;;5.80;100.00
10097;BME280;5087;42.662;23.466;2022-10-16T00:20:33;96067.56;;;6.03;100.00
10097;BME280;5087;42.662;23.466;2022-10-16T00:23:03;96056.47;;;5.89;100.00
10097;BME280;5087;42.662;23.466;2022-10-16T00:25:30;96068.84;;;5.95;100.00
10097;BME280;5087;42.662;23.466;2022-10-16T00:27:59;96066.19;;;5.90;100.00
10097;BME280;5087;42.662;23.466;2022-10-16T00:30:27;96063.19;;;5.76;100.00
10097;BME280;5087;42.662;23.466;2022-10-16T00:32:56;96078.84;;;5.79;100.00
10097;BME280;5087;42.662;23.466;2022-10-16T00:35:23;96077.47;;;5.66;100.00
10097;BME280;5087;42.662;23.466;2022-10-16T00:37:50;96087.19;;;5.67;100.00
10097;BME280;5087;42.662;23.466;2022-10-16T00:40:18;96086.34;;;5.62;100.00
10097;BME280;5087;42.662;23.466;2022-10-16T00:42:45;96085.53;;;5.56;100.00
10097;BME280;5087;42.662;23.466;2022-10-16T00:45:12;96080.16;;;5.51;100.00
10097;BME280;5087;42.662;23.466;2022-10-16T00:47:42;96064.50;;;5.37;100.00
10097;BME280;5087;42.662;23.466;2022-10-16T00:50:18;96083.34;;;5.43;100.00
10097;BME280;5087;42.662;23.466;2022-10-16T00:52:50;96086.84;;;5.38;100.00
10097;BME280;5087;42.662;23.466;2022-10-16T00:55:18;96086.56;;;5.34;100.00
10097;BME280;5087;42.662;23.466;2022-10-16T00:57:45;96084.41;;;5.31;100.00
10097;BME280;5087;42.662;23.466;2022-10-16T01:00:16;96085.47;;;5.25;100.00
10097;BME280;5087;42.662;23.466;2022-10-16T01:02:43;96085.72;;;5.23;100.00
10097;BME280;5087;42.662;23.466;2022-10-16T01:05:11;96100.53;;;5.16;100.00
10097;BME280;5087;42.662;23.466;2022-10-16T01:07:47;96092.13;;;5.07;100.00
10097;BME280;5087;42.662;23.466;2022-10-16T01:10:25;96096.16;;;5.04;100.00
10097;BME280;5087;42.662;23.466;2022-10-16T01:12:58;96102.34;;;5.00;100.00
10097;BME280;5087;42.662;23.466;2022-10-16T01:15:28;96098.84;;;5.04;100.00
10097;BME280;5087;42.662;23.466;2022-10-16T01:18:00;96085.94;;;5.01;100.00
10097;BME280;5087;42.662;23.466;2022-10-16T01:20:35;96085.94;;;5.06;100.00
10097;BME280;5087;42.662;23.466;2022-10-16T01:23:15;96105.81;;;4.95;100.00
10097;BME280;5087;42.662;23.466;2022-10-16T01:26:02;96089.16;;;4.98;100.00
10097;BME280;5087;42.662;23.466;2022-10-16T01:28:39;96089.75;;;5.16;100.00
10097;BME280;5087;42.662;23.466;2022-10-16T01:31:09;96083.28;;;5.12;100.00
10097;BME280;5087;42.662;23.466;2022-10-16T01:33:41;96072.53;;;5.22;100.00
10097;BME280;5087;42.662;23.466;2022-10-16T01:36:13;96082.19;;;5.07;100.00
10097;BME280;5087;42.662;23.466;2022-10-16T01:38:43;96080.53;;;4.96;100.00
10097;BME280;5087;42.662;23.466;2022-10-16T01:41:17;96086.41;;;4.83;100.00
10097;BME280;5087;42.662;23.466;2022-10-16T01:43:50;96094.97;;;4.80;100.00
10097;BME280;5087;42.662;23.466;2022-10-16T01:46:21;96091.72;;;4.72;100.00
10097;BME280;5087;42.662;23.466;2022-10-16T01:48:51;96094.91;;;4.64;100.00
10097;BME280;5087;42.662;23.466;2022-10-16T01:51:19;96098.69;;;4.63;100.00
10097;BME280;5087;42.662;23.466;2022-10-16T01:53:50;96094.84;;;4.54;100.00
10097;BME280;5087;42.662;23.466;2022-10-16T01:56:20;96103.91;;;4.37;100.00
10097;BME280;5087;42.662;23.466;2022-10-16T01:58:53;96089.00;;;4.19;100.00
10097;BME280;5087;42.662;23.466;2022-10-16T02:01:26;96097.84;;;4.20;100.00
10097;BME280;5087;42.662;23.466;2022-10-16T02:03:57;96092.16;;;4.11;100.00
10097;BME280;5087;42.662;23.466;2022-10-16T02:06:26;96107.53;;;4.21;100.00
10097;BME280;5087;42.662;23.466;2022-10-16T02:08:55;96095.63;;;4.06;100.00
10097;BME280;5087;42.662;23.466;2022-10-16T02:11:23;96118.84;;;4.23;100.00
10097;BME280;5087;42.662;23.466;2022-10-16T02:14:00;96111.22;;;4.09;100.00
10097;BME280;5087;42.662;23.466;2022-10-16T02:16:33;96118.59;;;4.24;100.00
10097;BME280;5087;42.662;23.466;2022-10-16T02:19:01;96113.97;;;4.20;100.00
10097;BME280;5087;42.662;23.466;2022-10-16T02:21:30;96132.59;;;4.26;100.00
10097;BME280;5087;42.662;23.466;2022-10-16T02:24:03;96118.75;;;4.12;100.00
10097;BME280;5087;42.662;23.466;2022-10-16T02:26:35;96137.06;;;4.16;100.00
10097;BME280;5087;42.662;23.466;2022-10-16T02:29:09;96133.81;;;4.14;100.00
10097;BME280;5087;42.662;23.466;2022-10-16T02:31:41;96133.22;;;4.06;100.00
10097;BME280;5087;42.662;23.466;2022-10-16T02:34:10;96130.28;;;4.08;100.00
10097;BME280;5087;42.662;23.466;2022-10-16T02:36:40;96139.16;;;4.08;100.00
10097;BME280;5087;42.662;23.466;2022-10-16T02:39:08;96135.03;;;3.95;100.00
10097;BME280;5087;42.662;23.466;2022-10-16T02:41:36;96138.22;;;3.92;100.00
10097;BME280;5087;42.662;23.466;2022-10-16T02:44:03;96116.38;;;3.84;100.00
10097;BME280;5087;42.662;23.466;2022-10-16T02:46:32;96120.97;;;3.83;100.00
10097;BME280;5087;42.662;23.466;2022-10-16T02:48:59;96136.38;;;3.98;100.00
10097;BME280;5087;42.662;23.466;2022-10-16T02:51:26;96108.28;;;3.78;100.00
10097;BME280;5087;42.662;23.466;2022-10-16T02:53:53;96145.50;;;3.97;100.00
10097;BME280;5087;42.662;23.466;2022-10-16T02:56:22;96147.09;;;3.93;100.00
10097;BME280;5087;42.662;23.466;2022-10-16T02:58:49;96150.88;;;3.97;100.00
10097;BME280;5087;42.662;23.466;2022-10-16T03:01:16;96144.91;;;3.90;100.00
10097;BME280;5087;42.662;23.466;2022-10-16T03:03:45;96143.38;;;3.99;100.00
10097;BME280;5087;42.662;23.466;2022-10-16T03:06:12;96160.47;;;3.88;100.00
10097;BME280;5087;42.662;23.466;2022-10-16T03:08:40;96146.28;;;3.65;100.00
10097;BME280;5087;42.662;23.466;2022-10-16T03:11:07;96149.88;;;3.76;100.00
10097;BME280;5087;42.662;23.466;2022-10-16T03:13:34;96160.88;;;3.74;100.00
10097;BME280;5087;42.662;23.466;2022-10-16T03:16:01;96159.69;;;3.92;100.00
10097;BME280;5087;42.662;23.466;2022-10-16T03:18:29;96155.66;;;3.90;100.00
10097;BME280;5087;42.662;23.466;2022-10-16T03:20:57;96166.13;;;3.64;100.00
10097;BME280;5087;42.662;23.466;2022-10-16T03:23:24;96163.41;;;3.59;100.00
10097;BME280;5087;42.662;23.466;2022-10-16T03:25:52;96166.53;;;3.51;100.00
10097;BME280;5087;42.662;23.466;2022-10-16T03:28:19;96160.09;;;3.52;100.00
10097;BME280;5087;42.662;23.466;2022-10-16T03:30:46;96170.34;;;3.55;100.00
10097;BME280;5087;42.662;23.466;2022-10-16T03:33:14;96169.75;;;3.47;100.00
10097;BME280;5087;42.662;23.466;2022-10-16T03:35:41;96157.47;;;3.57;100.00
10097;BME280;5087;42.662;23.466;2022-10-16T03:38:09;96166.97;;;3.42;100.00
10097;BME280;5087;42.662;23.466;2022-10-16T03:40:36;96158.63;;;3.66;100.00
10097;BME280;5087;42.662;23.466;2022-10-16T03:43:03;96171.06;;;3.72;100.00
10097;BME280;5087;42.662;23.466;2022-10-16T03:45:30;96162.78;;;3.52;100.00
10097;BME280;5087;42.662;23.466;2022-10-16T03:47:59;96140.88;;;3.38;100.00
10097;BME280;5087;42.662;23.466;2022-10-16T03:50:30;96166.44;;;3.40;100.00
10097;BME280;5087;42.662;23.466;2022-10-16T03:52:57;96158.88;;;3.37;100.00
10097;BME280;5087;42.662;23.466;2022-10-16T03:55:26;96158.81;;;3.32;100.00
10097;BME280;5087;42.662;23.466;2022-10-16T03:57:53;96156.19;;;3.37;100.00
10097;BME280;5087;42.662;23.466;2022-10-16T04:00:20;96165.31;;;3.36;100.00
10097;BME280;5087;42.662;23.466;2022-10-16T04:02:47;96165.25;;;3.31;100.00
10097;BME280;5087;42.662;23.466;2022-10-16T04:05:14;96160.28;;;3.17;100.00
10097;BME280;5087;42.662;23.466;2022-10-16T04:07:42;96173.22;;;3.26;100.00
10097;BME280;5087;42.662;23.466;2022-10-16T04:10:09;96165.69;;;3.23;100.00
10097;BME280;5087;42.662;23.466;2022-10-16T04:12:38;96174.97;;;3.37;100.00
10097;BME280;5087;42.662;23.466;2022-10-16T04:15:06;96137.22;;;3.22;100.00
10097;BME280;5087;42.662;23.466;2022-10-16T04:17:34;96172.66;;;3.46;100.00
10097;BME280;5087;42.662;23.466;2022-10-16T04:20:01;96164.97;;;3.55;100.00
10097;BME280;5087;42.662;23.466;2022-10-16T04:22:29;96145.00;;;3.45;100.00
10097;BME280;5087;42.662;23.466;2022-10-16T04:24:56;96156.94;;;3.32;100.00
10097;BME280;5087;42.662;23.466;2022-10-16T04:27:23;96169.44;;;3.44;100.00
10097;BME280;5087;42.662;23.466;2022-10-16T04:29:52;96170.72;;;3.41;100.00
10097;BME280;5087;42.662;23.466;2022-10-16T04:32:19;96143.78;;;3.31;100.00
10097;BME280;5087;42.662;23.466;2022-10-16T04:34:46;96171.72;;;3.57;100.00
10097;BME280;5087;42.662;23.466;2022-10-16T04:37:13;96181.69;;;3.62;100.00
10097;BME280;5087;42.662;23.466;2022-10-16T04:39:41;96188.88;;;3.56;100.00
10097;BME280;5087;42.662;23.466;2022-10-16T04:42:08;96189.16;;;3.55;100.00
10097;BME280;5087;42.662;23.466;2022-10-16T04:44:35;96187.34;;;3.38;100.00
10097;BME280;5087;42.662;23.466;2022-10-16T04:47:03;96166.06;;;3.09;100.00
10097;BME280;5087;42.662;23.466;2022-10-16T04:49:30;96184.59;;;3.33;100.00
10097;BME280;5087;42.662;23.466;2022-10-16T04:51:58;96185.22;;;3.40;100.00
10097;BME280;5087;42.662;23.466;2022-10-16T04:54:25;96174.97;;;3.37;100.00
10097;BME280;5087;42.662;23.466;2022-10-16T04:56:52;96182.53;;;3.40;100.00
10097;BME280;5087;42.662;23.466;2022-10-16T04:59:20;96207.72;;;3.61;100.00
10097;BME280;5087;42.662;23.466;2022-10-16T05:01:48;96213.41;;;3.65;100.00
10097;BME280;5087;42.662;23.466;2022-10-16T05:04:17;96215.41;;;3.53;100.00
10097;BME280;5087;42.662;23.466;2022-10-16T05:06:44;96211.06;;;3.46;100.00
10097;BME280;5087;42.662;23.466;2022-10-16T05:09:11;96209.50;;;3.28;100.00
10097;BME280;5087;42.662;23.466;2022-10-16T05:11:39;96192.25;;;2.63;100.00
10097;BME280;5087;42.662;23.466;2022-10-16T05:14:06;96223.81;;;2.95;100.00
10097;BME280;5087;42.662;23.466;2022-10-16T05:16:34;96229.81;;;3.02;100.00
10097;BME280;5087;42.662;23.466;2022-10-16T05:19:01;96225.22;;;3.20;100.00
10097;BME280;5087;42.662;23.466;2022-10-16T05:21:29;96186.59;;;2.98;100.00
10097;BME280;5087;42.662;23.466;2022-10-16T05:23:56;96232.47;;;3.41;100.00
10097;BME280;5087;42.662;23.466;2022-10-16T05:26:23;96230.03;;;3.62;100.00
10097;BME280;5087;42.662;23.466;2022-10-16T05:28:51;96241.81;;;4.10;100.00
10097;BME280;5087;42.662;23.466;2022-10-16T05:31:18;96240.69;;;4.34;100.00
10097;BME280;5087;42.662;23.466;2022-10-16T05:33:45;96229.44;;;4.69;100.00
10097;BME280;5087;42.662;23.466;2022-10-16T05:36:12;96231.13;;;4.48;100.00
10097;BME280;5087;42.662;23.466;2022-10-16T05:38:41;96230.16;;;4.97;100.00
10097;BME280;5087;42.662;23.466;2022-10-16T05:41:10;96229.66;;;5.05;100.00
10097;BME280;5087;42.662;23.466;2022-10-16T05:43:37;96219.41;;;5.02;100.00
10097;BME280;5087;42.662;23.466;2022-10-16T05:46:05;96210.84;;;5.11;100.00
10097;BME280;5087;42.662;23.466;2022-10-16T05:48:33;96217.59;;;5.13;100.00
10097;BME280;5087;42.662;23.466;2022-10-16T05:51:01;96235.63;;;5.13;100.00
10097;BME280;5087;42.662;23.466;2022-10-16T05:53:30;96218.53;;;5.39;100.00
10097;BME280;5087;42.662;23.466;2022-10-16T05:56:00;96221.81;;;5.57;100.00
10097;BME280;5087;42.662;23.466;2022-10-16T05:58:31;96243.72;;;5.76;100.00
10097;BME280;5087;42.662;23.466;2022-10-16T06:01:00;96241.63;;;5.94;100.00
10097;BME280;5087;42.662;23.466;2022-10-16T06:03:28;96247.00;;;5.89;100.00
10097;BME280;5087;42.662;23.466;2022-10-16T06:05:55;96221.38;;;5.76;100.00
10097;BME280;5087;42.662;23.466;2022-10-16T06:08:25;96245.56;;;5.60;100.00
10097;BME280;5087;42.662;23.466;2022-10-16T06:11:02;96255.69;;;5.37;100.00
10097;BME280;5087;42.662;23.466;2022-10-16T06:13:31;96225.09;;;5.64;100.00
10097;BME280;5087;42.662;23.466;2022-10-16T06:15:59;96260.13;;;5.69;100.00
10097;BME280;5087;42.662;23.466;2022-10-16T06:18:27;96264.25;;;5.93;100.00
10097;BME280;5087;42.662;23.466;2022-10-16T06:20:58;96246.53;;;6.02;100.00
10097;BME280;5087;42.662;23.466;2022-10-16T06:23:25;96259.69;;;5.93;100.00
10097;BME280;5087;42.662;23.466;2022-10-16T06:26:05;96235.13;;;5.84;100.00
10097;BME280;5087;42.662;23.466;2022-10-16T06:28:33;96269.91;;;5.96;100.00
10097;BME280;5087;42.662;23.466;2022-10-16T06:31:00;96272.13;;;6.05;100.00
10097;BME280;5087;42.662;23.466;2022-10-16T06:33:27;96268.41;;;6.16;100.00
10097;BME280;5087;42.662;23.466;2022-10-16T06:36:00;96272.50;;;6.70;100.00
10097;BME280;5087;42.662;23.466;2022-10-16T06:38:28;96267.09;;;6.91;100.00
10097;BME280;5087;42.662;23.466;2022-10-16T06:40:55;96273.84;;;6.99;100.00
10097;BME280;5087;42.662;23.466;2022-10-16T06:43:25;96240.88;;;7.17;100.00
10097;BME280;5087;42.662;23.466;2022-10-16T06:45:52;96264.38;;;7.06;100.00
10097;BME280;5087;42.662;23.466;2022-10-16T06:48:20;96285.69;;;7.18;100.00
10097;BME280;5087;42.662;23.466;2022-10-16T06:50:58;96269.72;;;7.37;100.00
10097;BME280;5087;42.662;23.466;2022-10-16T06:53:27;96288.06;;;7.66;100.00
10097;BME280;5087;42.662;23.466;2022-10-16T06:55:54;96263.94;;;7.75;100.00
10097;BME280;5087;42.662;23.466;2022-10-16T06:58:26;96275.06;;;7.63;100.00
10097;BME280;5087;42.662;23.466;2022-10-16T07:00:55;96295.25;;;7.91;100.00
10097;BME280;5087;42.662;23.466;2022-10-16T07:03:23;96292.81;;;7.90;100.00
10097;BME280;5087;42.662;23.466;2022-10-16T07:05:51;96288.09;;;8.16;100.00
10097;BME280;5087;42.662;23.466;2022-10-16T07:08:18;96286.84;;;8.53;100.00
10097;BME280;5087;42.662;23.466;2022-10-16T07:10:45;96277.66;;;7.94;100.00
10097;BME280;5087;42.662;23.466;2022-10-16T07:13:12;96291.88;;;8.20;100.00
10097;BME280;5087;42.662;23.466;2022-10-16T07:15:41;96286.16;;;8.72;100.00
10097;BME280;5087;42.662;23.466;2022-10-16T07:18:08;96291.66;;;8.62;100.00
10097;BME280;5087;42.662;23.466;2022-10-16T07:20:35;96271.78;;;8.77;100.00
10097;BME280;5087;42.662;23.466;2022-10-16T07:23:03;96257.88;;;8.89;100.00
10097;BME280;5087;42.662;23.466;2022-10-16T07:25:30;96291.03;;;9.34;100.00
10097;BME280;5087;42.662;23.466;2022-10-16T07:27:57;96284.06;;;9.57;100.00
10097;BME280;5087;42.662;23.466;2022-10-16T07:30:24;96281.03;;;10.07;100.00
10097;BME280;5087;42.662;23.466;2022-10-16T07:32:53;96284.19;;;9.90;100.00
10097;BME280;5087;42.662;23.466;2022-10-16T07:35:20;96286.97;;;9.85;100.00
10097;BME280;5087;42.662;23.466;2022-10-16T07:37:47;96229.53;;;10.02;100.00
10097;BME280;5087;42.662;23.466;2022-10-16T07:40:14;96279.63;;;11.05;100.00
10097;BME280;5087;42.662;23.466;2022-10-16T07:42:42;96289.56;;;11.29;100.00
10097;BME280;5087;42.662;23.466;2022-10-16T07:45:09;96262.91;;;11.59;100.00
10097;BME280;5087;42.662;23.466;2022-10-16T07:47:36;96271.78;;;11.79;100.00
10097;BME280;5087;42.662;23.466;2022-10-16T07:50:05;96228.03;;;11.33;100.00
10097;BME280;5087;42.662;23.466;2022-10-16T07:52:33;96286.47;;;11.17;100.00
10097;BME280;5087;42.662;23.466;2022-10-16T07:55:00;96287.97;;;10.57;100.00
10097;BME280;5087;42.662;23.466;2022-10-16T07:57:27;96269.31;;;10.69;100.00
10097;BME280;5087;42.662;23.466;2022-10-16T07:59:54;96279.25;;;10.93;100.00
10097;BME280;5087;42.662;23.466;2022-10-16T08:02:24;96268.28;;;11.17;100.00
10097;BME280;5087;42.662;23.466;2022-10-16T08:04:51;96245.59;;;11.83;100.00
10097;BME280;5087;42.662;23.466;2022-10-16T08:07:20;96275.94;;;12.55;100.00
10097;BME280;5087;42.662;23.466;2022-10-16T08:09:49;96291.78;;;12.39;100.00
10097;BME280;5087;42.662;23.466;2022-10-16T08:12:17;96284.94;;;13.23;100.00
10097;BME280;5087;42.662;23.466;2022-10-16T08:14:44;96281.59;;;13.49;100.00
10097;BME280;5087;42.662;23.466;2022-10-16T08:17:14;96276.09;;;13.81;100.00
10097;BME280;5087;42.662;23.466;2022-10-16T08:19:47;96275.88;;;13.59;100.00
10097;BME280;5087;42.662;23.466;2022-10-16T08:22:14;96261.63;;;13.40;100.00
10097;BME280;5087;42.662;23.466;2022-10-16T08:24:43;96264.50;;;12.89;100.00
10097;BME280;5087;42.662;23.466;2022-10-16T08:27:10;96276.91;;;12.59;100.00
10097;BME280;5087;42.662;23.466;2022-10-16T08:29:37;96277.50;;;12.92;100.00
10097;BME280;5087;42.662;23.466;2022-10-16T08:32:04;96263.00;;;13.51;100.00
10097;BME280;5087;42.662;23.466;2022-10-16T08:34:32;96262.53;;;13.04;100.00
10097;BME280;5087;42.662;23.466;2022-10-16T08:36:59;96258.59;;;13.73;100.00
10097;BME280;5087;42.662;23.466;2022-10-16T08:39:26;96246.84;;;14.39;100.00
10097;BME280;5087;42.662;23.466;2022-10-16T08:42:13;96257.22;;;13.30;100.00
10097;BME280;5087;42.662;23.466;2022-10-16T08:45:02;96268.22;;;13.70;100.00
10097;BME280;5087;42.662;23.466;2022-10-16T08:47:43;96259.19;;;13.70;100.00
10097;BME280;5087;42.662;23.466;2022-10-16T08:50:13;96252.78;;;13.66;100.00
10097;BME280;5087;42.662;23.466;2022-10-16T08:52:44;96248.59;;;14.26;100.00
10097;BME280;5087;42.662;23.466;2022-10-16T08:55:28;96262.28;;;14.35;100.00
10097;BME280;5087;42.662;23.466;2022-10-16T08:58:01;96263.47;;;13.93;100.00
10097;BME280;5087;42.662;23.466;2022-10-16T09:00:28;96263.53;;;14.11;100.00
10097;BME280;5087;42.662;23.466;2022-10-16T09:03:05;96270.31;;;14.49;100.00
10097;BME280;5087;42.662;23.466;2022-10-16T09:05:46;96261.66;;;14.91;100.00
10097;BME280;5087;42.662;23.466;2022-10-16T09:08:25;96265.63;;;14.23;100.00
10097;BME280;5087;42.662;23.466;2022-10-16T09:11:00;96256.53;;;14.80;100.00
10097;BME280;5087;42.662;23.466;2022-10-16T09:13:38;96265.06;;;13.95;100.00
10097;BME280;5087;42.662;23.466;2022-10-16T09:16:14;96243.66;;;13.70;100.00
10097;BME280;5087;42.662;23.466;2022-10-16T09:18:48;96259.53;;;13.68;100.00
10097;BME280;5087;42.662;23.466;2022-10-16T09:21:18;96250.84;;;13.66;100.00
10097;BME280;5087;42.662;23.466;2022-10-16T09:23:47;96250.81;;;14.06;100.00
10097;BME280;5087;42.662;23.466;2022-10-16T09:26:16;96255.28;;;13.93;100.00
10097;BME280;5087;42.662;23.466;2022-10-16T09:28:46;96243.25;;;14.03;100.00
10097;BME280;5087;42.662;23.466;2022-10-16T09:31:17;96242.19;;;14.31;99.32
10097;BME280;5087;42.662;23.466;2022-10-16T09:33:49;96239.88;;;13.98;100.00
10097;BME280;5087;42.662;23.466;2022-10-16T09:36:17;96250.59;;;14.78;96.78
10097;BME280;5087;42.662;23.466;2022-10-16T09:38:45;96233.00;;;15.14;94.57
10097;BME280;5087;42.662;23.466;2022-10-16T09:41:16;96234.66;;;14.98;94.93
10097;BME280;5087;42.662;23.466;2022-10-16T09:43:51;96247.84;;;15.13;93.96
10097;BME280;5087;42.662;23.466;2022-10-16T09:46:24;96245.09;;;15.61;94.30
10097;BME280;5087;42.662;23.466;2022-10-16T09:48:54;96196.22;;;15.50;92.44
10097;BME280;5087;42.662;23.466;2022-10-16T09:51:27;96216.91;;;15.30;87.65
10097;BME280;5087;42.662;23.466;2022-10-16T09:53:59;96231.03;;;15.89;83.47
10097;BME280;5087;42.662;23.466;2022-10-16T09:56:29;96202.84;;;15.41;81.07
10097;BME280;5087;42.662;23.466;2022-10-16T09:59:01;96214.91;;;15.87;82.14
10097;BME280;5087;42.662;23.466;2022-10-16T10:01:31;96213.88;;;16.01;82.16
10097;BME280;5087;42.662;23.466;2022-10-16T10:04:02;96195.84;;;16.63;82.62
10097;BME280;5087;42.662;23.466;2022-10-16T10:06:32;96219.53;;;16.46;82.05
10097;BME280;5087;42.662;23.466;2022-10-16T10:09:04;96203.78;;;16.43;81.05
10097;BME280;5087;42.662;23.466;2022-10-16T10:11:44;96206.88;;;17.43;78.90
10097;BME280;5087;42.662;23.466;2022-10-16T10:14:32;96216.22;;;16.11;76.75
10097;BME280;5087;42.662;23.466;2022-10-16T10:17:09;96212.19;;;15.78;77.16
10097;BME280;5087;42.662;23.466;2022-10-16T10:19:39;96202.44;;;15.60;77.73
10097;BME280;5087;42.662;23.466;2022-10-16T10:22:16;96200.00;;;16.27;75.63
10097;BME280;5087;42.662;23.466;2022-10-16T10:24:44;96194.56;;;15.58;72.97
10097;BME280;5087;42.662;23.466;2022-10-16T10:27:16;96207.13;;;15.59;73.49
10097;BME280;5087;42.662;23.466;2022-10-16T10:29:53;96207.41;;;16.05;73.39
10097;BME280;5087;42.662;23.466;2022-10-16T10:32:28;96201.81;;;16.23;75.34
10097;BME280;5087;42.662;23.466;2022-10-16T10:35:14;96206.88;;;16.12;72.09
10097;BME280;5087;42.662;23.466;2022-10-16T10:37:52;96195.34;;;16.49;71.73
10097;BME280;5087;42.662;23.466;2022-10-16T10:40:34;96172.28;;;16.28;71.41
10097;BME280;5087;42.662;23.466;2022-10-16T10:43:09;96187.00;;;16.78;71.44
10097;BME280;5087;42.662;23.466;2022-10-16T10:45:44;96192.28;;;16.84;70.73
10097;BME280;5087;42.662;23.466;2022-10-16T10:48:50;96188.25;;;16.05;71.55
10097;BME280;5087;42.662;23.466;2022-10-16T10:51:27;96192.50;;;16.57;70.52
10097;BME280;5087;42.662;23.466;2022-10-16T10:54:07;96191.91;;;16.94;68.94
10097;BME280;5087;42.662;23.466;2022-10-16T10:56:45;96184.97;;;16.54;70.40
10097;BME280;5087;42.662;23.466;2022-10-16T10:59:46;96183.75;;;16.64;69.79
10097;BME280;5087;42.662;23.466;2022-10-16T11:02:23;96165.91;;;16.16;70.14
10097;BME280;5087;42.662;23.466;2022-10-16T11:05:01;96168.31;;;16.38;70.49
10097;BME280;5087;42.662;23.466;2022-10-16T11:07:39;96156.38;;;16.98;71.44
10097;BME280;5087;42.662;23.466;2022-10-16T11:10:13;96159.84;;;16.86;69.98
10097;BME280;5087;42.662;23.466;2022-10-16T11:12:44;96165.97;;;17.04;72.43
10097;BME280;5087;42.662;23.466;2022-10-16T11:15:15;96159.84;;;17.32;70.78
10097;BME280;5087;42.662;23.466;2022-10-16T11:17:50;96144.75;;;17.63;68.88
10097;BME280;5087;42.662;23.466;2022-10-16T11:20:26;96154.13;;;16.91;70.41
10097;BME280;5087;42.662;23.466;2022-10-16T11:22:58;96157.22;;;17.85;68.33
10097;BME280;5087;42.662;23.466;2022-10-16T11:25:28;96152.22;;;17.50;70.01
10097;BME280;5087;42.662;23.466;2022-10-16T11:28:00;96148.53;;;17.33;71.74
10097;BME280;5087;42.662;23.466;2022-10-16T11:30:30;96150.00;;;17.18;69.10
10097;BME280;5087;42.662;23.466;2022-10-16T11:33:05;96128.75;;;17.65;69.38
10097;BME280;5087;42.662;23.466;2022-10-16T11:35:41;96148.66;;;17.49;68.71
10097;BME280;5087;42.662;23.466;2022-10-16T11:38:14;96149.63;;;17.07;67.95
10097;BME280;5087;42.662;23.466;2022-10-16T11:40:43;96154.81;;;17.21;67.47
10097;BME280;5087;42.662;23.466;2022-10-16T11:43:17;96141.66;;;17.15;68.05
10097;BME280;5087;42.662;23.466;2022-10-16T11:45:50;96133.44;;;17.39;67.26
10097;BME280;5087;42.662;23.466;2022-10-16T11:48:24;96115.03;;;17.40;68.05
10097;BME280;5087;42.662;23.466;2022-10-16T11:50:54;96131.63;;;17.56;67.19
10097;BME280;5087;42.662;23.466;2022-10-16T11:53:39;96156.00;;;17.70;64.77
10097;BME280;5087;42.662;23.466;2022-10-16T11:56:12;96148.31;;;17.76;65.60
10097;BME280;5087;42.662;23.466;2022-10-16T11:58:49;96135.50;;;17.18;67.60
10097;BME280;5087;42.662;23.466;2022-10-16T12:01:24;96139.47;;;17.08;68.61
10097;BME280;5087;42.662;23.466;2022-10-16T12:04:06;96145.25;;;17.77;67.40
10097;BME280;5087;42.662;23.466;2022-10-16T12:06:44;96146.25;;;17.97;67.92
10097;BME280;5087;42.662;23.466;2022-10-16T12:09:19;96146.50;;;17.55;67.69
10097;BME280;5087;42.662;23.466;2022-10-16T12:11:48;96136.63;;;17.66;67.05
10097;BME280;5087;42.662;23.466;2022-10-16T12:14:33;96152.66;;;17.77;67.07
10097;BME280;5087;42.662;23.466;2022-10-16T12:17:02;96131.25;;;17.20;68.61
10097;BME280;5087;42.662;23.466;2022-10-16T12:19:32;96146.50;;;17.43;68.70
10097;BME280;5087;42.662;23.466;2022-10-16T12:22:01;96141.44;;;17.69;67.40
10097;BME280;5087;42.662;23.466;2022-10-16T12:24:35;96144.31;;;17.73;65.80
10097;BME280;5087;42.662;23.466;2022-10-16T12:27:04;96113.72;;;18.12;64.42
10097;BME280;5087;42.662;23.466;2022-10-16T12:29:35;96121.69;;;18.86;64.27
10097;BME280;5087;42.662;23.466;2022-10-16T12:32:05;96136.03;;;19.24;63.06
10097;BME280;5087;42.662;23.466;2022-10-16T12:34:39;96129.19;;;19.50;63.85
10097;BME280;5087;42.662;23.466;2022-10-16T12:37:21;96136.13;;;18.83;64.55
10097;BME280;5087;42.662;23.466;2022-10-16T12:39:51;96107.41;;;18.11;65.09
10097;BME280;5087;42.662;23.466;2022-10-16T12:42:30;96129.28;;;18.08;64.34
10097;BME280;5087;42.662;23.466;2022-10-16T12:44:59;96146.94;;;17.94;64.77
10097;BME280;5087;42.662;23.466;2022-10-16T12:47:37;96129.53;;;18.02;65.25
10097;BME280;5087;42.662;23.466;2022-10-16T12:50:28;96136.78;;;18.35;62.41
10097;BME280;5087;42.662;23.466;2022-10-16T12:53:01;96138.91;;;18.14;60.97
10097;BME280;5087;42.662;23.466;2022-10-16T12:55:35;96131.44;;;18.55;60.98
10097;BME280;5087;42.662;23.466;2022-10-16T12:58:18;96137.34;;;19.62;57.99
10097;BME280;5087;42.662;23.466;2022-10-16T13:00:55;96152.97;;;18.53;60.33
10097;BME280;5087;42.662;23.466;2022-10-16T13:06:36;96145.50;;;18.66;59.52
10097;BME280;5087;42.662;23.466;2022-10-16T13:09:30;96145.94;;;18.68;61.21
10097;BME280;5087;42.662;23.466;2022-10-16T13:12:30;96103.41;;;18.94;59.66
10097;BME280;5087;42.662;23.466;2022-10-16T13:15:25;96144.94;;;19.49;59.38
10097;BME280;5087;42.662;23.466;2022-10-16T13:18:05;96140.19;;;18.04;62.73
10097;BME280;5087;42.662;23.466;2022-10-16T13:20:37;96136.88;;;17.74;63.06